createdAt,value
2019-03-24T00:00:36.809Z,77.41
2019-03-24T00:03:05.942Z,77.10
2019-03-24T00:05:35.391Z,77.10
2019-03-24T00:08:04.524Z,77.12
2019-03-24T00:10:34.081Z,77.08
2019-03-24T00:13:03.184Z,77.38
2019-03-24T00:15:32.289Z,77.39
2019-03-24T00:18:01.396Z,77.98
2019-03-24T00:20:30.510Z,78.44
2019-03-24T00:22:59.615Z,79.43
2019-03-24T00:25:28.724Z,79.29
2019-03-24T00:27:57.814Z,79.80
2019-03-24T00:30:26.928Z,80.60
2019-03-24T00:32:56.002Z,80.73
2019-03-24T00:35:25.126Z,81.22
2019-03-24T00:37:54.233Z,81.11
2019-03-24T00:40:23.350Z,81.28
2019-03-24T00:42:53.217Z,81.79
2019-03-24T00:45:22.357Z,81.82
2019-03-24T00:47:51.769Z,82.05
2019-03-24T00:50:20.871Z,82.16
2019-03-24T00:52:52.808Z,82.08
2019-03-24T00:55:25.200Z,82.04
2019-03-24T00:57:55.086Z,82.09
2019-03-24T01:00:44.151Z,82.10
2019-03-24T01:03:13.263Z,82.31
2019-03-24T01:05:42.384Z,82.40
2019-03-24T01:08:11.503Z,83.17
2019-03-24T01:10:40.604Z,83.22
2019-03-24T01:13:09.735Z,83.67
2019-03-24T01:15:47.295Z,84.02
2019-03-24T01:18:09.693Z,83.98
2019-03-24T01:20:38.795Z,84.55
2019-03-24T01:23:07.910Z,84.18
2019-03-24T01:25:37.231Z,83.97
2019-03-24T01:28:06.349Z,83.67
2019-03-24T01:30:39.791Z,83.78
2019-03-24T01:33:08.870Z,83.97
2019-03-24T01:35:38.010Z,84.42
2019-03-24T01:38:07.085Z,84.58
2019-03-24T01:40:36.333Z,84.86
2019-03-24T01:43:05.479Z,84.99
2019-03-24T01:45:34.899Z,85.40
2019-03-24T01:48:04.024Z,84.44
2019-03-24T01:50:33.141Z,84.71
2019-03-24T01:53:02.244Z,84.77
2019-03-24T01:55:31.347Z,85.14
2019-03-24T01:58:00.434Z,85.22
2019-03-24T02:00:29.584Z,85.45
2019-03-24T02:02:58.678Z,85.18
2019-03-24T02:05:27.846Z,84.90
2019-03-24T02:08:01.759Z,84.88
2019-03-24T02:10:31.526Z,85.21
2019-03-24T02:13:00.630Z,85.16
2019-03-24T02:15:30.136Z,85.30
2019-03-24T02:17:59.236Z,85.42
2019-03-24T02:20:30.307Z,85.83
2019-03-24T02:22:59.408Z,85.78
2019-03-24T02:25:28.544Z,85.90
2019-03-24T02:27:58.106Z,86.16
2019-03-24T02:30:27.555Z,86.03
2019-03-24T02:32:58.587Z,85.89
2019-03-24T02:35:27.677Z,86.10
2019-03-24T02:37:56.808Z,86.14
2019-03-24T02:40:25.920Z,86.41
2019-03-24T02:42:59.310Z,85.85
2019-03-24T02:45:28.743Z,85.39
2019-03-24T02:47:58.169Z,85.21
2019-03-24T02:50:27.287Z,85.05
2019-03-24T02:52:56.370Z,84.95
2019-03-24T02:55:25.483Z,84.46
2019-03-24T02:58:00.647Z,84.50
2019-03-24T03:00:29.771Z,84.65
2019-03-24T03:02:58.873Z,84.70
2019-03-24T03:05:27.997Z,84.67
2019-03-24T03:07:57.069Z,84.48
2019-03-24T03:10:26.927Z,84.90
2019-03-24T03:12:56.010Z,84.73
2019-03-24T03:15:25.429Z,85.08
2019-03-24T03:17:55.218Z,85.04
2019-03-24T03:20:24.377Z,85.51
2019-03-24T03:22:53.477Z,85.36
2019-03-24T03:25:22.583Z,85.02
2019-03-24T03:27:51.678Z,85.73
2019-03-24T03:30:20.786Z,85.65
2019-03-24T03:32:49.895Z,85.56
2019-03-24T03:35:18.995Z,85.94
2019-03-24T03:37:48.107Z,86.04
2019-03-24T03:40:17.259Z,86.18
2019-03-24T03:42:46.359Z,85.98
2019-03-24T03:45:19.836Z,86.12
2019-03-24T03:47:48.941Z,86.07
2019-03-24T03:50:18.017Z,86.18
2019-03-24T03:52:47.127Z,86.18
2019-03-24T03:55:16.224Z,86.28
2019-03-24T03:57:45.340Z,86.24
2019-03-24T04:00:15.190Z,86.25
2019-03-24T04:02:44.303Z,86.43
2019-03-24T04:05:16.220Z,86.48
2019-03-24T04:07:45.347Z,86.34
2019-03-24T04:10:14.441Z,86.44
2019-03-24T04:12:43.941Z,86.68
2019-03-24T04:15:13.047Z,86.51
2019-03-24T04:17:42.171Z,86.65
2019-03-24T04:20:11.289Z,86.34
2019-03-24T04:22:40.696Z,86.00
2019-03-24T04:25:09.780Z,86.14
2019-03-24T04:27:42.366Z,86.49
2019-03-24T04:30:12.680Z,86.65
2019-03-24T04:32:41.776Z,86.74
2019-03-24T04:35:11.213Z,86.91
2019-03-24T04:37:40.344Z,86.77
2019-03-24T04:40:09.796Z,86.98
2019-03-24T04:42:42.035Z,87.43
2019-03-24T04:45:11.203Z,87.30
2019-03-24T04:47:40.336Z,87.39
2019-03-24T04:50:09.630Z,87.23
2019-03-24T04:52:38.736Z,87.12
2019-03-24T04:55:08.083Z,87.52
2019-03-24T04:57:37.415Z,87.66
2019-03-24T05:00:08.692Z,87.64
2019-03-24T05:02:37.800Z,87.51
2019-03-24T05:05:07.141Z,87.60
2019-03-24T05:07:36.239Z,87.36
2019-03-24T05:10:06.093Z,87.54
2019-03-24T05:12:35.224Z,87.53
2019-03-24T05:15:04.419Z,87.56
2019-03-24T05:17:35.931Z,87.29
2019-03-24T05:20:08.170Z,87.64
2019-03-24T05:22:37.322Z,87.59
2019-03-24T05:25:06.377Z,87.35
2019-03-24T05:27:35.502Z,87.37
2019-03-24T05:30:05.651Z,87.14
2019-03-24T05:32:35.115Z,87.14
2019-03-24T05:35:05.815Z,87.19
2019-03-24T05:37:34.991Z,87.26
2019-03-24T05:40:05.462Z,86.96
2019-03-24T05:42:34.571Z,87.13
2019-03-24T05:45:03.699Z,86.87
2019-03-24T05:47:37.124Z,86.97
2019-03-24T05:50:06.812Z,86.98
2019-03-24T05:52:35.960Z,87.04
2019-03-24T05:55:07.170Z,86.90
2019-03-24T05:57:36.250Z,86.58
2019-03-24T06:00:06.073Z,85.97
2019-03-24T06:02:35.173Z,85.63
2019-03-24T06:05:04.285Z,85.28
2019-03-24T06:07:33.366Z,85.00
2019-03-24T06:10:02.457Z,85.00
2019-03-24T06:12:31.646Z,85.12
2019-03-24T06:15:00.766Z,85.31
2019-03-24T06:17:29.905Z,84.99
2019-03-24T06:19:59.012Z,84.82
2019-03-24T06:22:28.123Z,84.27
2019-03-24T06:24:57.212Z,83.83
2019-03-24T06:27:26.342Z,83.50
2019-03-24T06:29:55.412Z,83.90
2019-03-24T06:32:24.522Z,83.59
2019-03-24T06:34:53.622Z,83.69
2019-03-24T06:37:25.283Z,83.61
2019-03-24T06:39:54.393Z,83.21
2019-03-24T06:42:26.632Z,82.98
2019-03-24T06:44:55.735Z,82.91
2019-03-24T06:47:24.822Z,83.47
2019-03-24T06:49:53.912Z,83.35
2019-03-24T06:52:23.593Z,82.86
2019-03-24T06:54:53.288Z,82.59
2019-03-24T06:57:22.397Z,82.61
2019-03-24T06:59:51.503Z,83.90
2019-03-24T07:02:20.910Z,84.41
2019-03-24T07:04:50.016Z,84.08
2019-03-24T07:07:19.143Z,83.11
2019-03-24T07:09:48.235Z,83.40
2019-03-24T07:12:19.826Z,82.77
2019-03-24T07:14:48.945Z,82.78
2019-03-24T07:17:18.067Z,82.82
2019-03-24T07:19:47.136Z,83.31
2019-03-24T07:22:16.661Z,82.74
2019-03-24T07:24:45.752Z,81.98
2019-03-24T07:27:14.878Z,81.56
2019-03-24T07:29:44.192Z,80.97
2019-03-24T07:32:13.649Z,80.16
2019-03-24T07:34:42.765Z,78.30
2019-03-24T07:37:12.269Z,77.28
2019-03-24T07:39:44.502Z,75.50
2019-03-24T07:42:13.618Z,75.26
2019-03-24T07:44:42.741Z,74.84
2019-03-24T07:47:14.647Z,74.23
2019-03-24T07:49:43.808Z,74.05
2019-03-24T07:52:12.906Z,75.30
2019-03-24T07:54:42.003Z,74.70
2019-03-24T07:57:11.129Z,75.78
2019-03-24T07:59:40.265Z,75.79
2019-03-24T08:02:09.390Z,74.39
2019-03-24T08:04:38.492Z,73.70
2019-03-24T08:07:07.811Z,73.05
2019-03-24T08:09:39.081Z,72.64
2019-03-24T08:12:08.207Z,73.32
2019-03-24T08:14:37.308Z,71.70
2019-03-24T08:17:06.463Z,70.99
2019-03-24T08:19:35.568Z,71.21
2019-03-24T08:22:04.692Z,72.12
2019-03-24T08:24:34.167Z,72.50
2019-03-24T08:27:03.261Z,72.82
2019-03-24T08:29:32.384Z,73.07
2019-03-24T08:32:01.518Z,72.94
2019-03-24T08:34:30.661Z,71.61
2019-03-24T08:36:59.799Z,71.48
2019-03-24T08:39:28.908Z,72.15
2019-03-24T08:41:58.021Z,74.38
2019-03-24T08:44:27.124Z,74.16
2019-03-24T08:46:56.276Z,74.24
2019-03-24T08:49:25.680Z,72.36
2019-03-24T08:51:54.783Z,72.35
2019-03-24T08:54:23.889Z,73.87
2019-03-24T08:56:53.009Z,73.90
2019-03-24T08:59:24.505Z,73.14
2019-03-24T09:01:54.325Z,72.67
2019-03-24T09:04:23.767Z,71.26
2019-03-24T09:06:52.878Z,71.29
2019-03-24T09:09:21.981Z,71.97
2019-03-24T09:11:51.367Z,72.09
2019-03-24T09:14:20.455Z,71.70
2019-03-24T09:16:49.839Z,71.34
2019-03-24T09:19:21.654Z,71.61
2019-03-24T09:21:52.300Z,72.28
2019-03-24T09:24:21.411Z,71.64
2019-03-24T09:26:50.947Z,72.00
2019-03-24T09:29:20.729Z,72.19
2019-03-24T09:31:53.512Z,71.75
2019-03-24T09:34:22.653Z,71.16
2019-03-24T09:36:51.988Z,70.98
2019-03-24T09:39:21.125Z,70.68
2019-03-24T09:41:50.214Z,70.18
2019-03-24T09:44:19.365Z,70.22
2019-03-24T09:46:48.492Z,69.21
2019-03-24T09:49:17.590Z,67.66
2019-03-24T09:51:46.743Z,65.62
2019-03-24T09:54:21.021Z,65.49
2019-03-24T09:56:50.126Z,65.91
2019-03-24T09:59:22.944Z,67.44
2019-03-24T10:01:52.036Z,67.12
2019-03-24T10:04:21.182Z,66.18
2019-03-24T10:06:50.292Z,64.99
2019-03-24T10:09:20.679Z,64.19
2019-03-24T10:11:50.117Z,63.15
2019-03-24T10:14:19.266Z,63.89
2019-03-24T10:16:48.388Z,62.54
2019-03-24T10:19:18.248Z,62.60
2019-03-24T10:21:47.328Z,62.48
2019-03-24T10:24:19.587Z,60.38
2019-03-24T10:26:48.725Z,58.86
2019-03-24T10:29:17.837Z,58.55
2019-03-24T10:31:47.719Z,59.11
2019-03-24T10:34:17.245Z,58.87
2019-03-24T10:36:48.455Z,57.06
2019-03-24T10:39:17.571Z,56.85
2019-03-24T10:41:46.688Z,57.69
2019-03-24T10:44:17.131Z,56.00
2019-03-24T10:46:46.270Z,57.50
2019-03-24T10:49:24.646Z,58.17
2019-03-24T10:51:49.351Z,57.56
2019-03-24T10:54:19.321Z,56.81
2019-03-24T10:56:48.730Z,57.95
2019-03-24T10:59:18.254Z,52.79
2019-03-24T11:01:47.342Z,51.63
2019-03-24T11:04:16.745Z,54.26
2019-03-24T11:06:47.722Z,44.66
2019-03-24T11:09:16.833Z,43.52
2019-03-24T11:11:48.273Z,46.97
2019-03-24T11:14:17.383Z,43.23
2019-03-24T11:16:48.161Z,45.27
2019-03-24T11:19:17.273Z,42.84
2019-03-24T11:21:47.119Z,44.38
2019-03-24T11:24:16.235Z,44.58
2019-03-24T11:26:45.332Z,44.30
2019-03-24T11:29:14.468Z,41.87
2019-03-24T11:31:44.228Z,41.99
2019-03-24T11:34:13.316Z,44.43
2019-03-24T11:36:42.752Z,46.35
2019-03-24T11:39:11.872Z,46.86
2019-03-24T11:41:41.684Z,47.51
2019-03-24T11:44:13.417Z,46.39
2019-03-24T11:46:42.509Z,44.56
2019-03-24T11:49:16.088Z,44.64
2019-03-24T11:51:47.584Z,45.88
2019-03-24T11:54:16.688Z,45.63
2019-03-24T11:56:45.795Z,45.23
2019-03-24T11:59:14.908Z,45.78
2019-03-24T12:01:43.996Z,45.06
2019-03-24T12:04:13.138Z,45.19
2019-03-24T12:06:42.266Z,44.22
2019-03-24T12:09:11.389Z,44.14
2019-03-24T12:11:40.483Z,43.59
2019-03-24T12:14:09.574Z,43.88
2019-03-24T12:16:38.722Z,43.46
2019-03-24T12:19:07.836Z,43.26
2019-03-24T12:21:37.253Z,43.64
2019-03-24T12:24:06.358Z,44.07
2019-03-24T12:26:35.460Z,43.76
2019-03-24T12:29:05.322Z,44.55
2019-03-24T12:31:34.424Z,44.29
2019-03-24T12:34:04.276Z,45.50
2019-03-24T12:36:34.116Z,43.80
2019-03-24T12:39:04.525Z,45.16
2019-03-24T12:41:33.646Z,46.19
2019-03-24T12:44:05.877Z,46.62
2019-03-24T12:46:35.031Z,45.86
2019-03-24T12:49:04.909Z,45.77
2019-03-24T12:51:34.079Z,43.98
2019-03-24T12:54:03.180Z,44.68
2019-03-24T12:56:32.279Z,43.97
2019-03-24T12:59:03.278Z,44.30
2019-03-24T13:01:32.387Z,45.05
2019-03-24T13:04:01.888Z,43.26
2019-03-24T13:06:31.006Z,43.97
2019-03-24T13:09:00.103Z,43.84
2019-03-24T13:11:29.216Z,43.85
2019-03-24T13:13:58.660Z,44.17
2019-03-24T13:16:30.918Z,44.75
2019-03-24T13:19:00.112Z,43.46
2019-03-24T13:21:31.919Z,43.51
2019-03-24T13:24:01.002Z,44.16
2019-03-24T13:26:30.153Z,43.62
2019-03-24T13:28:59.251Z,44.55
2019-03-24T13:31:29.337Z,44.14
2019-03-24T13:33:58.520Z,45.41
2019-03-24T13:36:27.616Z,45.29
2019-03-24T13:38:56.736Z,44.64
2019-03-24T13:41:26.567Z,44.39
2019-03-24T13:43:55.794Z,45.31
2019-03-24T13:46:24.947Z,44.28
2019-03-24T13:48:54.405Z,44.78
2019-03-24T13:51:23.834Z,45.60
2019-03-24T13:53:52.917Z,45.42
2019-03-24T13:56:22.050Z,46.35
2019-03-24T13:58:51.170Z,45.66
2019-03-24T14:01:20.377Z,45.23
2019-03-24T14:03:49.838Z,43.88
2019-03-24T14:06:18.967Z,43.32
2019-03-24T14:08:48.055Z,43.83
2019-03-24T14:11:17.208Z,45.07
2019-03-24T14:13:46.319Z,44.50
2019-03-24T14:16:15.470Z,44.73
2019-03-24T14:18:44.901Z,44.31
2019-03-24T14:21:17.211Z,45.29
2019-03-24T14:23:46.311Z,45.61
2019-03-24T14:26:16.136Z,44.83
2019-03-24T14:28:45.247Z,44.43
2019-03-24T14:31:14.350Z,44.97
2019-03-24T14:33:44.211Z,44.30
2019-03-24T14:36:13.361Z,45.43
2019-03-24T14:38:42.549Z,44.98
2019-03-24T14:41:15.508Z,44.86
2019-03-24T14:43:44.934Z,45.03
2019-03-24T14:46:14.717Z,46.24
2019-03-24T14:48:43.844Z,46.25
2019-03-24T14:51:13.335Z,45.20
2019-03-24T14:53:44.968Z,44.15
2019-03-24T14:56:15.120Z,45.78
2019-03-24T14:58:45.380Z,45.18
2019-03-24T15:01:15.599Z,45.21
2019-03-24T15:03:45.468Z,45.36
2019-03-24T15:06:14.618Z,44.23
2019-03-24T15:08:44.239Z,42.17
2019-03-24T15:11:14.072Z,42.38
2019-03-24T15:13:43.510Z,42.77
2019-03-24T15:16:12.919Z,42.90
2019-03-24T15:18:42.433Z,42.73
2019-03-24T15:21:11.677Z,41.80
2019-03-24T15:23:40.860Z,41.61
2019-03-24T15:26:09.971Z,42.27
2019-03-24T15:28:39.487Z,42.92
2019-03-24T15:31:09.018Z,42.53
2019-03-24T15:33:38.133Z,42.57
2019-03-24T15:36:07.243Z,43.57
2019-03-24T15:38:36.697Z,44.57
2019-03-24T15:41:05.786Z,45.05
2019-03-24T15:43:34.889Z,44.95
2019-03-24T15:46:04.046Z,45.16
2019-03-24T15:48:33.163Z,45.60
2019-03-24T15:51:02.311Z,44.55
2019-03-24T15:53:33.735Z,44.45
2019-03-24T15:56:03.525Z,43.16
2019-03-24T15:58:36.686Z,43.77
2019-03-24T16:01:07.829Z,44.47
2019-03-24T16:03:38.286Z,43.92
2019-03-24T16:06:08.157Z,43.03
2019-03-24T16:08:38.608Z,42.24
2019-03-24T16:11:09.873Z,42.38
2019-03-24T16:13:40.428Z,43.13
2019-03-24T16:16:10.438Z,42.83
2019-03-24T16:18:40.896Z,42.67
2019-03-24T16:21:10.685Z,42.22
2019-03-24T16:23:41.798Z,41.84
2019-03-24T16:26:11.643Z,43.43
2019-03-24T16:28:42.771Z,43.14
2019-03-24T16:31:12.577Z,43.06
2019-03-24T16:33:46.915Z,42.27
2019-03-24T16:36:16.418Z,41.89
2019-03-24T16:38:49.069Z,41.87
2019-03-24T16:41:17.341Z,41.58
2019-03-24T16:43:46.670Z,41.50
2019-03-24T16:46:16.949Z,40.68
2019-03-24T16:48:47.687Z,41.56
2019-03-24T16:51:16.837Z,41.78
2019-03-24T16:53:46.477Z,40.91
2019-03-24T16:56:17.189Z,41.03
2019-03-24T16:58:46.531Z,41.45
2019-03-24T17:01:17.289Z,41.11
2019-03-24T17:03:47.074Z,40.42
2019-03-24T17:06:19.775Z,39.68
2019-03-24T17:08:49.965Z,39.52
2019-03-24T17:11:22.264Z,38.88
2019-03-24T17:13:51.612Z,40.10
2019-03-24T17:16:20.886Z,41.27
2019-03-24T17:18:50.481Z,41.22
2019-03-24T17:21:20.216Z,43.74
2019-03-24T17:23:49.776Z,45.30
2019-03-24T17:26:23.249Z,46.30
2019-03-24T17:28:53.142Z,47.37
2019-03-24T17:31:23.093Z,48.67
2019-03-24T17:33:57.326Z,49.92
2019-03-24T17:36:27.212Z,50.07
2019-03-24T17:38:56.465Z,52.10
2019-03-24T17:41:25.649Z,52.16
2019-03-24T17:44:03.242Z,52.45
2019-03-24T17:46:28.538Z,53.43
2019-03-24T17:49:00.162Z,54.23
2019-03-24T17:51:29.228Z,54.95
2019-03-24T17:53:58.383Z,55.99
2019-03-24T17:56:27.487Z,56.99
2019-03-24T17:58:56.620Z,56.48
2019-03-24T18:01:25.781Z,56.84
2019-03-24T18:03:54.896Z,57.88
2019-03-24T18:06:25.105Z,59.75
2019-03-24T18:08:54.230Z,58.22
2019-03-24T18:11:23.384Z,58.86
2019-03-24T18:13:52.527Z,59.43
2019-03-24T18:16:21.625Z,59.94
2019-03-24T18:18:50.737Z,60.21
2019-03-24T18:21:19.885Z,60.22
2019-03-24T18:23:49.126Z,61.45
2019-03-24T18:26:18.256Z,61.29
2019-03-24T18:28:50.350Z,61.52
2019-03-24T18:31:19.448Z,61.28
2019-03-24T18:33:48.619Z,60.91
2019-03-24T18:36:17.732Z,60.64
2019-03-24T18:38:49.258Z,60.66
2019-03-24T18:41:18.762Z,61.21
2019-03-24T18:43:48.236Z,62.23
2019-03-24T18:46:18.105Z,62.70
2019-03-24T18:48:47.407Z,62.26
2019-03-24T18:51:19.506Z,63.10
2019-03-24T18:53:48.609Z,63.46
2019-03-24T18:56:18.068Z,63.84
2019-03-24T18:58:47.165Z,63.83
2019-03-24T19:01:16.288Z,63.94
2019-03-24T19:03:46.674Z,63.94
2019-03-24T19:06:15.784Z,62.03
2019-03-24T19:08:44.898Z,61.39
2019-03-24T19:11:14.004Z,61.29
2019-03-24T19:13:43.389Z,61.40
2019-03-24T19:16:12.539Z,62.04
2019-03-24T19:18:42.099Z,62.04
2019-03-24T19:21:11.594Z,62.08
2019-03-24T19:23:40.732Z,62.62
2019-03-24T19:26:09.855Z,62.85
2019-03-24T19:28:38.961Z,63.19
2019-03-24T19:31:08.087Z,62.40
2019-03-24T19:33:37.286Z,61.56
2019-03-24T19:36:06.415Z,61.58
2019-03-24T19:38:35.525Z,62.39
2019-03-24T19:41:04.656Z,62.79
2019-03-24T19:43:33.773Z,63.70
2019-03-24T19:46:02.886Z,63.81
2019-03-24T19:48:35.723Z,64.32
2019-03-24T19:51:07.033Z,64.54
2019-03-24T19:53:35.618Z,64.78
2019-03-24T19:56:04.750Z,65.60
2019-03-24T19:58:33.839Z,65.81
2019-03-24T20:01:02.991Z,66.18
2019-03-24T20:03:32.419Z,66.20
2019-03-24T20:06:01.551Z,66.24
2019-03-24T20:08:30.675Z,66.99
2019-03-24T20:10:59.796Z,67.08
2019-03-24T20:13:28.900Z,66.89
2019-03-24T20:15:58.387Z,67.37
2019-03-24T20:18:27.499Z,68.16
2019-03-24T20:20:56.594Z,68.52
2019-03-24T20:23:25.698Z,68.20
2019-03-24T20:25:56.687Z,68.35
2019-03-24T20:28:25.770Z,69.38
2019-03-24T20:30:54.903Z,69.79
2019-03-24T20:33:27.551Z,68.96
2019-03-24T20:35:56.657Z,69.06
2019-03-24T20:38:25.772Z,69.41
2019-03-24T20:40:54.895Z,69.89
2019-03-24T20:43:24.003Z,70.77
2019-03-24T20:45:55.783Z,72.94
2019-03-24T20:48:24.863Z,71.86
2019-03-24T20:50:53.982Z,73.16
2019-03-24T20:53:23.767Z,74.17
2019-03-24T20:55:56.005Z,74.19
2019-03-24T20:58:27.169Z,71.73
2019-03-24T21:00:56.623Z,72.76
2019-03-24T21:03:27.353Z,73.39
2019-03-24T21:05:58.889Z,73.00
2019-03-24T21:08:29.640Z,73.12
2019-03-24T21:10:58.735Z,73.73
2019-03-24T21:13:28.462Z,74.52
2019-03-24T21:15:57.577Z,74.77
2019-03-24T21:18:26.658Z,74.63
2019-03-24T21:20:55.758Z,75.25
2019-03-24T21:23:29.677Z,75.79
2019-03-24T21:25:57.103Z,75.75
2019-03-24T21:28:28.557Z,76.03
2019-03-24T21:30:57.709Z,75.86
2019-03-24T21:33:27.352Z,75.88
2019-03-24T21:35:56.464Z,76.61
2019-03-24T21:38:25.554Z,76.44
2019-03-24T21:40:54.637Z,76.65
2019-03-24T21:43:23.747Z,76.58
2019-03-24T21:45:55.995Z,76.08
2019-03-24T21:48:26.283Z,77.11
2019-03-24T21:50:55.437Z,77.01
2019-03-24T21:53:24.863Z,77.83
2019-03-24T21:55:53.950Z,78.00
2019-03-24T21:58:23.373Z,77.69
2019-03-24T22:00:52.484Z,74.84
2019-03-24T22:03:21.608Z,72.46
2019-03-24T22:05:51.451Z,71.13
2019-03-24T22:08:20.546Z,70.19
2019-03-24T22:10:49.810Z,69.38
2019-03-24T22:13:18.916Z,68.47
2019-03-24T22:15:48.013Z,68.38
2019-03-24T22:18:20.049Z,68.17
2019-03-24T22:20:49.432Z,68.17
2019-03-24T22:23:18.559Z,67.86
2019-03-24T22:25:47.654Z,67.46
2019-03-24T22:28:20.009Z,67.56
2019-03-24T22:30:49.410Z,67.08
2019-03-24T22:33:18.515Z,67.47
2019-03-24T22:35:47.615Z,67.86
2019-03-24T22:38:16.729Z,68.10
2019-03-24T22:40:49.388Z,67.96
2019-03-24T22:43:18.493Z,67.64
2019-03-24T22:45:47.924Z,67.89
2019-03-24T22:48:17.062Z,67.62
2019-03-24T22:50:46.175Z,67.64
2019-03-24T22:53:15.948Z,67.83
2019-03-24T22:55:45.403Z,67.93
2019-03-24T22:58:15.184Z,67.55
2019-03-24T23:00:55.051Z,67.75
2019-03-24T23:03:25.289Z,67.73
2019-03-24T23:05:58.059Z,67.75
2019-03-24T23:08:27.755Z,67.69
2019-03-24T23:10:57.211Z,67.92
2019-03-24T23:13:26.338Z,67.45
2019-03-24T23:15:55.778Z,67.42
2019-03-24T23:18:24.890Z,67.85
2019-03-24T23:20:53.986Z,67.48
2019-03-24T23:23:26.741Z,67.15
2019-03-24T23:25:55.840Z,66.95
2019-03-24T23:28:24.958Z,67.14
2019-03-24T23:30:54.441Z,67.17
2019-03-24T23:33:23.562Z,67.53
2019-03-24T23:35:53.325Z,67.72
2019-03-24T23:38:22.472Z,68.11
2019-03-24T23:40:51.863Z,68.04
2019-03-24T23:43:21.649Z,68.39
2019-03-24T23:45:50.759Z,69.02
2019-03-24T23:48:22.724Z,68.80
2019-03-24T23:50:51.827Z,68.27
2019-03-24T23:53:20.967Z,68.55
2019-03-24T23:55:50.400Z,68.78
2019-03-24T23:58:19.522Z,68.43
